Time;durP1;ratioP1;P1;durP2;ratioP2;P2;SDS_P1;SDS_P2;PMS_P1;PMS_P2;Temp;Humidity;BMP_temperature;BMP_pressure;BME280_temperature;BME280_humidity;BME280_pressure;Samples;Min_cycle;Max_cycle;Signal;HPM_P1;HPM_P2
2022/01/20 00:02:27;;;;;;;12.85;2.22;;;3.30;87.80;;;;;;5034509;28;20029;-45
2022/01/20 00:08:54;;;;;;;13.90;3.10;;;3.30;87.80;;;;;;5034299;28;20076;-45
2022/01/20 00:27:17;;;;;;;31.60;4.82;;;3.40;87.80;;;;;;5034300;28;20102;-45
2022/01/20 00:32:41;;;;;;;26.88;6.15;;;3.30;87.80;;;;;;5033705;28;20474;-47
2022/01/20 00:35:19;;;;;;;16.48;3.17;;;3.20;88.00;;;;;;5033723;28;20072;-47
2022/01/20 00:37:46;;;;;;;15.88;2.72;;;3.10;87.90;;;;;;5031246;28;20029;-47
2022/01/20 00:40:12;;;;;;;15.32;2.75;;;3.00;88.20;;;;;;5033821;28;20042;-45
2022/01/20 00:42:42;;;;;;;14.95;3.85;;;3.20;87.80;;;;;;5033624;28;20053;-46
2022/01/20 00:45:10;;;;;;;15.05;2.92;;;3.50;85.80;;;;;;5032670;28;20033;-49
2022/01/20 00:47:38;;;;;;;14.60;2.67;;;3.90;84.90;;;;;;5033428;28;20137;-45
2022/01/20 00:50:08;;;;;;;20.35;3.45;;;4.00;84.50;;;;;;5033079;28;20026;-45
2022/01/20 00:52:35;;;;;;;;;;;4.20;84.70;;;;;;5031924;28;20029;-48
2022/01/20 00:55:03;;;;;;;16.15;1.88;;;4.20;85.50;;;;;;5028490;28;19904;-47
2022/01/20 00:57:30;;;;;;;14.57;2.22;;;4.10;86.50;;;;;;5033247;28;20033;-47
2022/01/20 01:00:00;;;;;;;14.15;2.72;;;4.00;87.00;;;;;;5033768;28;20025;-46
2022/01/20 01:02:26;;;;;;;13.07;2.35;;;4.00;87.20;;;;;;5032396;28;20036;-46
2022/01/20 01:04:53;;;;;;;13.63;2.78;;;4.00;87.30;;;;;;5032438;28;20038;-49
2022/01/20 01:09:58;;;;;;;16.27;3.30;;;4.00;87.70;;;;;;5033371;28;20030;-47
2022/01/20 01:12:40;;;;;;;16.77;3.72;;;4.00;87.90;;;;;;5033550;28;20026;-47
2022/01/20 01:15:14;;;;;;;13.35;2.70;;;3.90;88.10;;;;;;5033108;28;20057;-48
2022/01/20 01:20:28;;;;;;;13.40;3.13;;;3.80;88.40;;;;;;5034500;28;20043;-48
2022/01/20 01:22:55;;;;;;;16.30;3.10;;;3.80;88.60;;;;;;5033045;28;20040;-57
2022/01/20 01:25:22;;;;;;;15.65;3.50;;;3.90;89.00;;;;;;5033981;28;20311;-56
2022/01/20 01:27:48;;;;;;;17.38;3.13;;;3.90;89.50;;;;;;5037327;28;20088;-60
2022/01/20 01:30:28;;;;;;;12.15;3.53;;;3.70;89.30;;;;;;5037559;28;20022;-57
2022/01/20 01:32:57;;;;;;;12.77;2.35;;;3.70;89.70;;;;;;5022379;28;20347;-50
2022/01/20 01:35:26;;;;;;;15.98;1.88;;;3.60;89.90;;;;;;5036623;28;20033;-50
2022/01/20 01:40:33;;;;;;;14.98;2.33;;;3.60;89.90;;;;;;5037297;28;20044;-49
2022/01/20 01:43:02;;;;;;;11.45;2.35;;;3.50;89.90;;;;;;5035922;28;20045;-52
2022/01/20 01:45:48;;;;;;;;;;;3.50;89.50;;;;;;5037877;28;20415;-50
2022/01/20 01:48:14;;;;;;;26.33;6.80;;;3.30;88.70;;;;;;5040700;28;19916;-50
2022/01/20 01:50:41;;;;;;;14.52;3.00;;;3.20;89.10;;;;;;5036454;28;20046;-48
2022/01/20 01:53:07;;;;;;;20.00;4.97;;;3.20;89.30;;;;;;5036077;28;20041;-48
2022/01/20 01:55:35;;;;;;;18.98;3.38;;;3.10;89.20;;;;;;5036974;28;20406;-52
2022/01/20 01:58:03;;;;;;;13.85;2.45;;;3.10;89.00;;;;;;5037154;28;20120;-47
2022/01/20 02:00:30;;;;;;;32.33;5.72;;;3.00;88.90;;;;;;5035509;28;20037;-50
2022/01/20 02:02:56;;;;;;;18.77;3.92;;;3.00;89.10;;;;;;5035567;28;20590;-47
2022/01/20 02:05:23;;;;;;;32.10;3.92;;;3.00;89.30;;;;;;5036290;28;20087;-48
2022/01/20 02:18:52;;;;;;;11.13;1.85;;;2.90;87.60;;;;;;5041190;28;20432;-58
2022/01/20 02:21:19;;;;;;;11.60;2.58;;;2.50;88.20;;;;;;5039207;28;20036;-56
2022/01/20 02:23:48;;;;;;;13.10;2.25;;;2.30;88.00;;;;;;5036584;28;20320;-52
2022/01/20 02:26:15;;;;;;;14.50;2.53;;;2.30;88.10;;;;;;5036285;28;20067;-54
2022/01/20 02:28:47;;;;;;;18.90;3.78;;;2.30;87.90;;;;;;5036059;28;20395;-50
2022/01/20 02:31:17;;;;;;;21.50;5.22;;;2.40;88.20;;;;;;5035060;28;20033;-49
2022/01/20 02:33:48;;;;;;;25.80;4.07;;;2.40;88.10;;;;;;5035489;28;20034;-48
2022/01/20 02:36:16;;;;;;;26.42;6.43;;;2.50;87.90;;;;;;5035544;28;20037;-48
2022/01/20 02:46:40;;;;;;;34.40;5.85;;;3.00;85.70;;;;;;5035509;28;20033;-50
2022/01/20 02:49:13;;;;;;;25.90;4.72;;;3.10;84.60;;;;;;5036245;28;20028;-46
2022/01/20 02:51:52;;;;;;;28.38;5.97;;;3.20;84.30;;;;;;5035774;28;20048;-48
2022/01/20 02:54:22;;;;;;;26.20;6.00;;;3.30;82.90;;;;;;5034846;28;20018;-46
2022/01/20 02:56:49;;;;;;;22.45;4.55;;;3.50;81.20;;;;;;5051730;28;20039;-44
2022/01/20 02:59:16;;;;;;;21.23;3.90;;;3.40;80.10;;;;;;5033995;28;20037;-46
2022/01/20 03:01:43;;;;;;;19.90;5.30;;;3.40;78.30;;;;;;5034727;28;20072;-45
2022/01/20 03:04:11;;;;;;;23.63;6.43;;;3.40;78.70;;;;;;5034651;28;20033;-44
2022/01/20 03:06:38;;;;;;;20.77;4.35;;;3.40;79.10;;;;;;5050902;28;20446;-45
2022/01/20 03:09:05;;;;;;;11.43;3.75;;;3.40;78.40;;;;;;5035296;28;20143;-44
2022/01/20 03:11:30;;;;;;;21.10;4.05;;;3.50;77.00;;;;;;5035191;28;20025;-44
2022/01/20 03:13:56;;;;;;;16.35;3.40;;;3.40;78.40;;;;;;5033693;28;20025;-44
2022/01/20 03:16:21;;;;;;;21.83;3.17;;;3.40;75.80;;;;;;5034762;28;20493;-43
2022/01/20 03:18:47;;;;;;;27.10;4.15;;;3.40;76.50;;;;;;5034029;28;20064;-44
2022/01/20 03:21:13;;;;;;;17.80;3.78;;;3.40;76.10;;;;;;5034544;28;20033;-43
2022/01/20 03:23:40;;;;;;;13.20;3.13;;;3.40;76.30;;;;;;5034854;28;20060;-43
2022/01/20 03:26:07;;;;;;;15.40;3.50;;;3.30;74.90;;;;;;5034846;28;20347;-43
2022/01/20 03:28:36;;;;;;;21.60;3.30;;;3.40;72.20;;;;;;5031106;28;20530;-42
2022/01/20 03:31:03;;;;;;;13.30;3.55;;;3.50;75.00;;;;;;5035137;28;20419;-44
2022/01/20 03:33:30;;;;;;;14.13;3.15;;;3.50;77.30;;;;;;5035035;28;20390;-43
2022/01/20 03:35:57;;;;;;;17.58;4.07;;;3.00;82.10;;;;;;5034981;28;20087;-47
2022/01/20 03:38:22;;;;;;;16.15;2.95;;;2.40;85.10;;;;;;5034931;28;20108;-44
2022/01/20 03:40:50;;;;;;;14.55;2.55;;;2.20;85.80;;;;;;5034959;28;20108;-45
2022/01/20 03:43:20;;;;;;;12.23;3.60;;;1.90;85.80;;;;;;5034661;28;20562;-43
2022/01/20 03:45:50;;;;;;;6.20;1.70;;;1.80;86.40;;;;;;5033666;28;20037;-45
2022/01/20 03:48:17;;;;;;;16.33;2.75;;;1.50;87.30;;;;;;5034223;28;20414;-47
2022/01/20 03:51:01;;;;;;;15.30;2.85;;;1.50;87.40;;;;;;5039875;28;20029;-48
2022/01/20 03:53:32;;;;;;;15.30;3.00;;;1.60;87.90;;;;;;5034474;28;20396;-45
2022/01/20 03:55:59;;;;;;;12.82;2.95;;;1.70;88.50;;;;;;5034576;28;20022;-45
2022/01/20 03:58:26;;;;;;;12.98;2.90;;;1.70;88.40;;;;;;5033639;28;20439;-49
2022/01/20 04:00:53;;;;;;;14.18;3.30;;;1.70;88.70;;;;;;5034476;28;20104;-48
2022/01/20 04:03:21;;;;;;;14.88;3.85;;;1.60;88.90;;;;;;5034481;28;20029;-47
2022/01/20 04:06:00;;;;;;;22.65;3.95;;;1.60;89.00;;;;;;5034207;28;20033;-48
2022/01/20 04:08:35;;;;;;;25.00;4.85;;;1.60;89.00;;;;;;5034051;28;20025;-48
2022/01/20 04:11:05;;;;;;;20.05;4.80;;;1.60;89.00;;;;;;5034605;28;20401;-49
2022/01/20 04:13:32;;;;;;;;;;;1.70;88.80;;;;;;5034581;28;20037;-46
2022/01/20 04:16:10;;;;;;;15.77;3.00;;;1.90;88.70;;;;;;5033442;28;19999;-47
2022/01/20 04:18:40;;;;;;;26.58;5.10;;;1.90;88.40;;;;;;5035985;28;20025;-46
2022/01/20 04:21:10;;;;;;;;;;;2.10;86.10;;;;;;5033670;28;20402;-45
2022/01/20 04:23:39;;;;;;;16.85;3.50;;;2.20;85.20;;;;;;5034207;28;19920;-46
2022/01/20 04:26:06;;;;;;;30.02;5.45;;;2.30;85.70;;;;;;5034137;28;20037;-46
2022/01/20 04:28:33;;;;;;;23.95;4.00;;;2.30;86.20;;;;;;5033020;28;20426;-46
2022/01/20 04:31:00;;;;;;;25.55;3.80;;;2.20;86.40;;;;;;5034029;28;20033;-45
2022/01/20 04:33:26;;;;;;;20.25;4.13;;;2.30;86.20;;;;;;5033963;28;20064;-47
2022/01/20 04:35:55;;;;;;;27.80;4.78;;;2.30;85.80;;;;;;5033739;28;20108;-46
2022/01/20 04:38:25;;;;;;;22.25;5.35;;;2.40;85.60;;;;;;5034070;28;20037;-45
2022/01/20 04:40:51;;;;;;;22.02;4.68;;;2.40;85.30;;;;;;5033049;28;20048;-45
2022/01/20 04:43:19;;;;;;;17.23;4.60;;;2.50;81.40;;;;;;5033439;28;20507;-45
2022/01/20 04:45:57;;;;;;;19.23;3.78;;;2.60;80.40;;;;;;5034040;28;20344;-45
2022/01/20 04:59:24;;;;;;;13.25;2.50;;;2.20;84.90;;;;;;5031879;28;20434;-45
2022/01/20 05:01:50;;;;;;;14.77;2.80;;;2.20;84.90;;;;;;5033796;28;20033;-44
2022/01/20 05:04:20;;;;;;;18.45;2.92;;;2.10;85.20;;;;;;5033377;28;20022;-45
2022/01/20 05:06:47;;;;;;;18.73;2.92;;;2.10;85.40;;;;;;5033603;28;20045;-44
2022/01/20 05:09:19;;;;;;;15.65;3.42;;;2.20;82.70;;;;;;5033475;28;20176;-44
2022/01/20 05:11:51;;;;;;;17.23;2.47;;;2.20;80.00;;;;;;5032570;28;20048;-43
2022/01/20 05:14:18;;;;;;;18.95;2.85;;;2.40;77.50;;;;;;5033033;28;20113;-44
2022/01/20 05:16:44;;;;;;;17.15;3.35;;;2.30;78.70;;;;;;5032962;28;20116;-46
2022/01/20 05:19:11;;;;;;;17.42;2.53;;;2.30;79.00;;;;;;5031819;28;20021;-46
2022/01/20 05:21:38;;;;;;;14.35;2.72;;;2.40;78.60;;;;;;5031994;28;20026;-43
2022/01/20 05:24:05;;;;;;;15.63;2.90;;;2.40;78.00;;;;;;5032806;28;20037;-44
2022/01/20 05:26:32;;;;;;;21.27;3.35;;;2.60;78.00;;;;;;5032888;28;20131;-43
2022/01/20 05:28:58;;;;;;;15.25;3.33;;;2.60;78.50;;;;;;5048080;28;20138;-44
2022/01/20 05:31:25;;;;;;;13.10;4.13;;;2.70;79.10;;;;;;5033264;28;20060;-43
2022/01/20 05:33:52;;;;;;;16.40;2.85;;;2.70;79.60;;;;;;5032926;28;20059;-44
2022/01/20 05:36:19;;;;;;;13.43;2.63;;;2.70;78.70;;;;;;5032506;28;20041;-43
2022/01/20 05:38:46;;;;;;;14.77;3.53;;;2.60;77.90;;;;;;5032270;28;20044;-44
2022/01/20 05:41:13;;;;;;;23.75;3.88;;;2.50;77.50;;;;;;5032713;28;20098;-42
2022/01/20 05:43:40;;;;;;;17.05;2.65;;;2.50;76.90;;;;;;5031080;28;20404;-44
2022/01/20 05:46:06;;;;;;;15.88;3.75;;;2.60;77.50;;;;;;5032884;28;20105;-45
2022/01/20 05:48:34;;;;;;;19.42;5.03;;;2.60;78.70;;;;;;5032350;28;20109;-47
2022/01/20 05:51:03;;;;;;;11.95;2.83;;;2.60;79.00;;;;;;5032456;28;20748;-44
2022/01/20 05:53:33;;;;;;;23.15;4.78;;;2.60;79.40;;;;;;5032960;28;20037;-44
2022/01/20 05:56:00;;;;;;;15.95;4.25;;;2.60;79.10;;;;;;5032334;28;20044;-44
2022/01/20 05:58:27;;;;;;;16.75;4.95;;;2.70;79.30;;;;;;5007028;28;20021;-47
2022/01/20 06:00:54;;;;;;;15.85;4.40;;;2.70;78.90;;;;;;5031352;28;20113;-44
2022/01/20 06:03:36;;;;;;;15.35;3.42;;;2.70;78.00;;;;;;5032415;28;20029;-44
2022/01/20 06:06:03;;;;;;;11.55;2.47;;;2.70;78.20;;;;;;5031465;28;20029;-46
2022/01/20 06:08:30;;;;;;;11.63;2.20;;;2.60;76.30;;;;;;5031023;28;20087;-44
2022/01/20 06:10:57;;;;;;;9.90;1.70;;;2.50;78.40;;;;;;5033643;28;20065;-44
2022/01/20 06:13:23;;;;;;;15.50;2.65;;;2.00;83.30;;;;;;5012631;28;20092;-44
2022/01/20 06:15:49;;;;;;;14.30;2.67;;;1.80;85.40;;;;;;5035689;28;20033;-44
2022/01/20 06:18:17;;;;;;;16.02;3.35;;;1.70;86.40;;;;;;5034801;28;20119;-45
2022/01/20 06:20:44;;;;;;;11.77;2.00;;;1.60;86.90;;;;;;5034824;28;20029;-44
2022/01/20 06:23:12;;;;;;;32.08;4.68;;;1.50;87.00;;;;;;5026678;28;20037;-46
2022/01/20 06:25:39;;;;;;;10.93;3.03;;;1.50;86.90;;;;;;5035878;28;20044;-44
2022/01/20 06:28:05;;;;;;;19.23;3.22;;;1.50;86.70;;;;;;5034711;28;20036;-45
2022/01/20 06:30:33;;;;;;;15.90;3.67;;;1.60;86.50;;;;;;5041420;28;20061;-44
2022/01/20 06:33:00;;;;;;;14.73;3.88;;;1.60;86.50;;;;;;5034482;28;20398;-44
2022/01/20 06:35:27;;;;;;;20.30;3.45;;;1.70;86.10;;;;;;5034627;28;20029;-46
2022/01/20 06:37:54;;;;;;;21.02;4.03;;;1.80;85.40;;;;;;5035047;28;20036;-44
2022/01/20 06:40:21;;;;;;;18.70;4.22;;;1.90;84.50;;;;;;5035092;28;20030;-46
2022/01/20 06:42:47;;;;;;;19.88;4.18;;;1.90;83.30;;;;;;5035001;28;20060;-44
2022/01/20 06:45:16;;;;;;;14.50;3.33;;;2.20;79.20;;;;;;5035456;28;20414;-46
2022/01/20 06:47:43;;;;;;;;;;;2.40;78.10;;;;;;5035691;28;20021;-44
2022/01/20 06:50:12;;;;;;;14.77;3.35;;;2.60;76.80;;;;;;5034335;28;19919;-44
2022/01/20 06:52:39;;;;;;;21.17;3.25;;;2.70;77.60;;;;;;5034476;28;20009;-45
2022/01/20 06:55:07;;;;;;;23.70;4.47;;;2.80;79.20;;;;;;5025078;28;20113;-44
2022/01/20 06:57:42;;;;;;;17.75;3.33;;;2.70;78.70;;;;;;5035007;28;20029;-47
2022/01/20 07:00:13;;;;;;;14.32;4.43;;;2.70;78.20;;;;;;5033632;28;20060;-46
2022/01/20 07:02:44;;;;;;;17.80;4.22;;;2.70;78.30;;;;;;5034046;28;20030;-43
2022/01/20 07:05:13;;;;;;;18.60;4.07;;;2.80;77.20;;;;;;5034157;28;20021;-46
2022/01/20 07:07:40;;;;;;;;;;;2.90;76.70;;;;;;5035417;28;20030;-44
2022/01/20 07:10:09;;;;;;;11.07;1.95;;;2.90;76.80;;;;;;5034694;28;20143;-45
2022/01/20 07:12:36;;;;;;;14.68;2.55;;;2.90;75.40;;;;;;5033618;28;20021;-45
2022/01/20 07:15:03;;;;;;;16.60;3.55;;;2.90;73.90;;;;;;5034530;28;20091;-46
2022/01/20 07:17:30;;;;;;;17.20;3.15;;;2.80;74.20;;;;;;5035017;28;20029;-44
2022/01/20 07:19:56;;;;;;;17.63;4.78;;;2.80;73.70;;;;;;5038745;28;20060;-44
2022/01/20 07:22:22;;;;;;;15.93;4.95;;;2.70;73.90;;;;;;5034156;28;20029;-46
2022/01/20 07:24:49;;;;;;;14.55;3.28;;;2.70;73.60;;;;;;5034898;28;20044;-46
2022/01/20 07:27:16;;;;;;;12.88;3.65;;;2.70;73.60;;;;;;5035127;28;20057;-45
2022/01/20 07:29:45;;;;;;;12.75;2.47;;;2.70;74.20;;;;;;5034968;28;20481;-45
2022/01/20 07:32:12;;;;;;;13.93;2.37;;;2.70;74.70;;;;;;5027343;28;20030;-45
2022/01/20 07:34:38;;;;;;;13.25;2.95;;;2.80;74.20;;;;;;5033741;28;20044;-45
2022/01/20 07:37:05;;;;;;;15.90;4.30;;;2.90;74.30;;;;;;5034851;28;20038;-46
2022/01/20 07:39:32;;;;;;;18.33;3.60;;;3.00;73.70;;;;;;5034940;28;20068;-45
2022/01/20 07:41:59;;;;;;;17.90;2.83;;;3.00;74.20;;;;;;5035137;28;20324;-44
2022/01/20 07:44:26;;;;;;;25.90;3.67;;;2.90;79.90;;;;;;5034427;28;20473;-44
2022/01/20 07:46:53;;;;;;;10.98;2.55;;;2.50;83.60;;;;;;5035015;28;20379;-44
2022/01/20 07:49:23;;;;;;;10.77;1.90;;;2.20;84.50;;;;;;5025074;28;20030;-45
2022/01/20 07:51:52;;;;;;;17.90;2.00;;;1.90;84.60;;;;;;5029733;28;20493;-44
2022/01/20 07:54:20;;;;;;;17.70;2.67;;;1.80;84.60;;;;;;5033231;28;20044;-43
2022/01/20 07:56:49;;;;;;;21.10;4.90;;;1.80;85.30;;;;;;5033372;28;20034;-44
2022/01/20 07:59:16;;;;;;;7.82;2.25;;;1.90;85.70;;;;;;5033058;28;20437;-45
2022/01/20 08:01:43;;;;;;;10.98;2.70;;;1.80;85.40;;;;;;5034137;28;20061;-45
2022/01/20 08:04:10;;;;;;;8.77;1.33;;;1.70;85.90;;;;;;5033734;28;20025;-46
2022/01/20 08:06:37;;;;;;;11.60;1.70;;;1.70;86.30;;;;;;5033527;28;20041;-51
2022/01/20 08:09:04;;;;;;;12.50;2.88;;;1.60;86.70;;;;;;5033901;28;20029;-46
2022/01/20 08:11:31;;;;;;;12.32;2.63;;;1.50;86.70;;;;;;5033445;28;20198;-47
2022/01/20 08:13:58;;;;;;;10.30;2.40;;;1.60;87.10;;;;;;5032947;28;20040;-46
2022/01/20 08:16:27;;;;;;;16.83;2.85;;;1.60;87.40;;;;;;5033100;28;20036;-48
2022/01/20 08:18:53;;;;;;;;;;;1.80;87.40;;;;;;5032566;28;20700;-51
2022/01/20 08:21:19;;;;;;;22.20;4.47;;;1.90;87.30;;;;;;5032901;28;19917;-48
2022/01/20 08:23:45;;;;;;;26.05;4.47;;;2.00;87.00;;;;;;5033315;28;20044;-49
2022/01/20 08:26:10;;;;;;;14.27;3.00;;;2.10;86.60;;;;;;5032870;28;20515;-49
2022/01/20 08:28:36;;;;;;;19.45;4.13;;;2.20;84.20;;;;;;5032381;28;20152;-54
2022/01/20 08:31:02;;;;;;;18.95;2.85;;;2.30;81.40;;;;;;5031703;28;20099;-50
2022/01/20 08:33:28;;;;;;;21.77;4.47;;;2.50;81.60;;;;;;5033147;28;20034;-51
2022/01/20 08:35:53;;;;;;;19.67;3.00;;;2.60;81.60;;;;;;5033137;28;20096;-48
2022/01/20 08:38:20;;;;;;;21.73;3.85;;;2.70;81.10;;;;;;5031590;28;20034;-51
2022/01/20 08:40:46;;;;;;;16.65;3.38;;;2.80;80.60;;;;;;5032860;28;20025;-48
2022/01/20 08:43:12;;;;;;;18.90;2.83;;;2.80;79.30;;;;;;5048459;28;20050;-47
2022/01/20 08:45:39;;;;;;;20.13;3.78;;;2.90;77.30;;;;;;5033259;28;20083;-46
2022/01/20 08:48:05;;;;;;;14.25;3.03;;;3.00;77.30;;;;;;5032930;28;20083;-46
2022/01/20 08:50:32;;;;;;;23.98;4.82;;;3.00;77.60;;;;;;5032106;28;20451;-45
2022/01/20 08:52:58;;;;;;;14.77;2.90;;;3.10;77.40;;;;;;5032559;28;20048;-43
2022/01/20 08:55:26;;;;;;;15.20;2.88;;;3.20;77.90;;;;;;5031809;28;20041;-46
2022/01/20 08:57:53;;;;;;;18.33;2.53;;;3.10;77.60;;;;;;5032404;28;20025;-44
2022/01/20 09:00:20;;;;;;;13.27;2.85;;;3.20;76.30;;;;;;5032823;28;20017;-44
2022/01/20 09:02:47;;;;;;;17.38;2.78;;;3.20;75.30;;;;;;5033067;28;20469;-45
2022/01/20 09:05:13;;;;;;;19.63;3.88;;;3.20;75.60;;;;;;5033167;28;20072;-43
2022/01/20 09:07:39;;;;;;;16.90;2.75;;;3.40;75.40;;;;;;5032159;28;20061;-43
2022/01/20 09:10:07;;;;;;;12.40;2.63;;;3.40;76.20;;;;;;5032811;28;20036;-44
2022/01/20 09:17:48;;;;;;;14.73;3.67;;;3.20;76.90;;;;;;5032953;28;20529;-46
2022/01/20 09:20:14;;;;;;;13.35;2.30;;;3.20;77.60;;;;;;5032364;28;20037;-47
2022/01/20 09:22:39;;;;;;;10.63;2.08;;;3.20;76.40;;;;;;5032250;28;20030;-44
2022/01/20 09:25:07;;;;;;;16.02;3.47;;;3.40;76.80;;;;;;5048618;28;20057;-46
2022/01/20 09:27:33;;;;;;;10.30;2.85;;;3.50;77.00;;;;;;5032397;28;20091;-48
2022/01/20 09:30:02;;;;;;;8.60;2.08;;;3.60;75.60;;;;;;5032890;28;20439;-46
2022/01/20 09:32:34;;;;;;;6.57;1.83;;;3.60;75.60;;;;;;5031325;28;20049;-46
2022/01/20 09:35:04;;;;;;;12.57;2.72;;;3.70;74.20;;;;;;5032066;28;20099;-46
2022/01/20 09:37:29;;;;;;;11.85;2.20;;;3.90;74.80;;;;;;5039998;28;20061;-46
2022/01/20 09:39:56;;;;;;;12.23;2.47;;;3.90;75.10;;;;;;5031493;28;20064;-45
2022/01/20 09:42:24;;;;;;;12.32;3.10;;;3.90;75.50;;;;;;5032182;28;20356;-43
2022/01/20 09:44:52;;;;;;;13.57;3.10;;;3.90;74.80;;;;;;5032266;28;20038;-47
2022/01/20 09:47:18;;;;;;;13.10;2.85;;;3.90;74.50;;;;;;5035609;28;20025;-45
2022/01/20 09:49:44;;;;;;;14.52;2.83;;;3.70;73.10;;;;;;5035206;28;20383;-47
2022/01/20 09:52:13;;;;;;;7.35;2.40;;;3.80;73.90;;;;;;5035532;28;20064;-47
2022/01/20 09:54:39;;;;;;;19.02;4.65;;;3.90;75.10;;;;;;5036595;28;20034;-43
2022/01/20 09:57:05;;;;;;;20.05;3.85;;;3.90;75.40;;;;;;5035826;28;20056;-45
2022/01/20 09:59:31;;;;;;;13.88;3.05;;;4.20;75.30;;;;;;5036679;28;20029;-44
2022/01/20 10:02:00;;;;;;;13.93;3.10;;;4.40;77.60;;;;;;5035689;28;20355;-48
2022/01/20 10:04:46;;;;;;;11.27;2.75;;;4.00;81.00;;;;;;5036200;28;20043;-45
2022/01/20 10:07:20;;;;;;;8.98;2.58;;;3.70;82.60;;;;;;5035674;28;20441;-44
2022/01/20 10:09:49;;;;;;;13.00;2.83;;;3.60;82.50;;;;;;5033212;28;20481;-44
2022/01/20 10:12:19;;;;;;;9.13;3.00;;;3.40;81.80;;;;;;5035478;28;20031;-48
2022/01/20 10:14:53;;;;;;;9.27;1.88;;;3.40;80.30;;;;;;5035715;28;20033;-46
2022/01/20 10:17:24;;;;;;;15.82;2.50;;;3.50;79.40;;;;;;5035398;28;20026;-47
2022/01/20 10:20:08;;;;;;;11.10;2.38;;;3.60;79.70;;;;;;5033711;28;20435;-45
2022/01/20 10:22:38;;;;;;;17.25;2.75;;;3.60;79.40;;;;;;5035589;28;20065;-47
2022/01/20 10:25:12;;;;;;;14.68;3.40;;;3.50;78.80;;;;;;5035045;28;20045;-45
2022/01/20 10:27:53;;;;;;;10.70;2.40;;;3.60;79.00;;;;;;5034438;28;20029;-44
2022/01/20 10:30:21;;;;;;;16.15;3.30;;;3.70;78.50;;;;;;5034571;28;20037;-50
2022/01/20 10:33:08;;;;;;;10.98;2.10;;;3.90;80.00;;;;;;5035358;28;20060;-45
2022/01/20 10:35:38;;;;;;;14.68;3.15;;;3.80;80.40;;;;;;5035205;28;20041;-45
2022/01/20 10:38:14;;;;;;;15.25;2.70;;;3.50;80.40;;;;;;5034392;28;20017;-44
2022/01/20 10:40:56;;;;;;;8.63;1.88;;;3.40;80.40;;;;;;5035098;28;20442;-46
2022/01/20 10:43:26;;;;;;;9.23;2.00;;;3.40;80.70;;;;;;5031989;28;20059;-47
2022/01/20 10:46:05;;;;;;;;;;;3.30;81.10;;;;;;5031036;28;20047;-46
2022/01/20 10:48:30;;;;;;;6.18;1.70;;;3.30;80.70;;;;;;5046750;28;19912;-45
2022/01/20 10:50:56;;;;;;;8.63;1.60;;;3.40;78.40;;;;;;5035048;28;20033;-46
2022/01/20 10:53:23;;;;;;;7.00;1.58;;;3.50;77.00;;;;;;5034303;28;20033;-45
2022/01/20 10:55:48;;;;;;;7.40;1.70;;;3.60;75.90;;;;;;5033786;28;20033;-45
2022/01/20 10:58:23;;;;;;;12.30;1.92;;;3.60;76.50;;;;;;5033386;28;20034;-46
2022/01/20 11:00:54;;;;;;;8.60;2.17;;;3.70;76.90;;;;;;5034845;28;20103;-45
2022/01/20 11:03:22;;;;;;;17.52;2.53;;;3.80;76.90;;;;;;5034778;28;20071;-46
2022/01/20 11:05:50;;;;;;;11.07;1.83;;;3.90;77.10;;;;;;5035236;28;20033;-47
2022/01/20 11:08:17;;;;;;;16.15;2.38;;;4.10;76.80;;;;;;5034122;28;20038;-46
2022/01/20 11:10:44;;;;;;;18.38;2.83;;;4.20;77.00;;;;;;5035235;28;20029;-46
2022/01/20 11:13:11;;;;;;;16.75;4.10;;;4.20;76.60;;;;;;5033806;28;20032;-46
2022/01/20 11:15:37;;;;;;;19.63;2.55;;;4.10;77.40;;;;;;5034332;28;20083;-45
2022/01/20 11:18:04;;;;;;;13.95;3.45;;;4.00;78.00;;;;;;5034946;28;20507;-47
2022/01/20 11:20:38;;;;;;;16.40;3.00;;;4.20;73.60;;;;;;5025742;28;20040;-46
2022/01/20 11:23:07;;;;;;;9.77;2.13;;;4.30;73.60;;;;;;5034436;28;20037;-46
2022/01/20 11:25:35;;;;;;;15.15;3.97;;;4.20;71.90;;;;;;5034414;28;20044;-45
2022/01/20 11:28:20;;;;;;;24.77;3.92;;;4.00;78.60;;;;;;5041141;28;20546;-44
2022/01/20 11:31:04;;;;;;;15.63;3.78;;;3.70;82.00;;;;;;5034512;28;20021;-45
2022/01/20 11:33:48;;;;;;;17.70;3.63;;;3.50;83.50;;;;;;5030082;28;20044;-46
2022/01/20 11:36:21;;;;;;;18.88;5.65;;;3.40;82.50;;;;;;5034221;28;20571;-48
2022/01/20 11:38:53;;;;;;;15.05;2.65;;;3.60;81.70;;;;;;5033278;28;20072;-47
2022/01/20 11:41:21;;;;;;;17.10;4.88;;;3.70;80.30;;;;;;5032678;28;20033;-48
2022/01/20 11:43:52;;;;;;;11.25;2.63;;;3.90;80.40;;;;;;5033517;28;20049;-45
2022/01/20 11:46:23;;;;;;;11.77;2.30;;;4.00;79.40;;;;;;5032981;28;20104;-45
2022/01/20 11:48:59;;;;;;;19.70;4.90;;;4.30;77.90;;;;;;5031266;28;20040;-49
2022/01/20 11:51:28;;;;;;;12.18;2.25;;;4.40;78.00;;;;;;5031791;28;20022;-45
2022/01/20 11:54:00;;;;;;;11.85;1.90;;;4.50;77.60;;;;;;5032850;28;20443;-45
2022/01/20 11:56:39;;;;;;;3.38;1.13;;;4.20;80.00;;;;;;5033135;28;20351;-50
2022/01/20 11:59:10;;;;;;;8.27;2.80;;;3.50;81.80;;;;;;5031962;28;20128;-48
2022/01/20 12:01:53;;;;;;;7.80;3.72;;;3.10;82.00;;;;;;5031660;28;20371;-45
2022/01/20 12:04:40;;;;;;;6.55;2.08;;;2.80;83.20;;;;;;5030684;28;20028;-46
2022/01/20 12:07:09;;;;;;;6.28;1.38;;;2.60;83.30;;;;;;5029091;28;20028;-49
2022/01/20 12:09:40;;;;;;;5.63;1.00;;;2.70;81.50;;;;;;5032283;28;20043;-49
2022/01/20 12:12:19;;;;;;;3.53;0.98;;;2.90;79.80;;;;;;5030401;28;20052;-47
2022/01/20 12:14:46;;;;;;;8.60;1.83;;;3.00;79.50;;;;;;5033184;28;20036;-45
2022/01/20 12:17:14;;;;;;;7.82;1.80;;;3.30;80.20;;;;;;5032811;28;20451;-45
2022/01/20 12:19:42;;;;;;;6.90;1.63;;;3.80;80.60;;;;;;5021147;28;20026;-47
2022/01/20 12:22:08;;;;;;;9.20;1.92;;;3.90;80.60;;;;;;5031088;28;20027;-48
2022/01/20 12:24:35;;;;;;;15.27;4.00;;;3.90;81.00;;;;;;5032893;28;20527;-45
2022/01/20 12:27:02;;;;;;;13.15;3.00;;;3.70;82.10;;;;;;5032840;28;20035;-52
2022/01/20 12:29:37;;;;;;;10.68;1.92;;;3.70;83.20;;;;;;5033001;28;20037;-46
2022/01/20 12:32:16;;;;;;;12.57;3.20;;;3.70;83.50;;;;;;5017108;28;20057;-42
2022/01/20 12:34:43;;;;;;;20.15;3.83;;;3.40;84.30;;;;;;5032834;28;20506;-43
2022/01/20 12:37:09;;;;;;;19.73;3.13;;;2.90;85.00;;;;;;5032693;28;20040;-45
2022/01/20 12:39:38;;;;;;;16.48;3.90;;;2.80;85.90;;;;;;5031850;28;20053;-44
2022/01/20 12:42:11;;;;;;;16.48;3.72;;;2.70;86.00;;;;;;5031924;28;20037;-46
2022/01/20 12:44:46;;;;;;;16.25;4.13;;;2.70;86.20;;;;;;5031757;28;20037;-50
2022/01/20 12:47:12;;;;;;;14.88;3.50;;;2.80;86.60;;;;;;5032907;28;20037;-46
2022/01/20 12:49:41;;;;;;;15.38;2.67;;;2.90;86.70;;;;;;5031999;28;20136;-50
2022/01/20 12:52:10;;;;;;;13.85;3.10;;;3.00;86.10;;;;;;5032686;28;20041;-49
2022/01/20 12:54:36;;;;;;;15.05;3.95;;;2.90;85.50;;;;;;5032654;28;20041;-47
2022/01/20 12:57:07;;;;;;;13.07;4.07;;;2.40;86.20;;;;;;5032881;28;20044;-54
2022/01/20 12:59:36;;;;;;;20.73;5.90;;;2.20;87.40;;;;;;5033210;28;20032;-53
2022/01/20 13:02:06;;;;;;;12.60;3.13;;;2.10;87.90;;;;;;5032959;28;20034;-55
2022/01/20 13:04:37;;;;;;;24.10;6.43;;;2.10;88.10;;;;;;5031795;28;20416;-55
2022/01/20 13:07:05;;;;;;;11.13;2.22;;;2.10;87.70;;;;;;5032764;28;20029;-57
2022/01/20 13:09:43;;;;;;;10.40;1.50;;;2.10;87.40;;;;;;5028127;28;20035;-51
2022/01/20 13:12:15;;;;;;;10.02;1.90;;;1.60;87.70;;;;;;5030986;28;20455;-48
2022/01/20 13:14:50;;;;;;;5.57;1.45;;;1.40;88.10;;;;;;5031619;28;20060;-48
2022/01/20 13:17:23;;;;;;;10.43;2.53;;;1.40;86.50;;;;;;5028847;28;20465;-47
2022/01/20 13:19:50;;;;;;;15.80;2.88;;;1.50;86.30;;;;;;5032310;28;20084;-51
2022/01/20 13:22:55;;;;;;;8.98;2.53;;;1.60;87.00;;;;;;5031016;28;20024;-46
2022/01/20 13:25:25;;;;;;;13.90;4.10;;;1.70;87.60;;;;;;5018955;28;20463;-48
2022/01/20 13:27:53;;;;;;;13.73;3.33;;;1.90;87.90;;;;;;5031315;28;20367;-50
2022/01/20 13:30:36;;;;;;;13.55;2.78;;;2.10;87.90;;;;;;5030818;28;20037;-48
2022/01/20 13:33:07;;;;;;;16.15;2.53;;;2.20;87.70;;;;;;5031888;28;20348;-55
2022/01/20 13:35:42;;;;;;;20.23;3.20;;;2.00;87.70;;;;;;5029129;28;20034;-58
2022/01/20 13:38:10;;;;;;;19.00;5.28;;;1.80;88.30;;;;;;5031262;28;20080;-58
2022/01/20 13:40:38;;;;;;;16.20;3.47;;;1.80;88.90;;;;;;5031635;28;20061;-59
2022/01/20 13:45:42;;;;;;;24.48;4.70;;;2.00;88.20;;;;;;5031853;28;20144;-59
2022/01/20 13:48:12;;;;;;;22.17;3.10;;;1.80;87.90;;;;;;5032108;28;20467;-58
2022/01/20 13:50:43;;;;;;;6.35;1.75;;;1.80;88.20;;;;;;5030225;28;20041;-54
2022/01/20 13:53:17;;;;;;;13.80;2.17;;;1.80;88.00;;;;;;5030121;28;20029;-57
2022/01/20 13:55:47;;;;;;;14.05;3.83;;;1.90;87.50;;;;;;5029466;28;20033;-55
2022/01/20 13:58:26;;;;;;;17.42;2.30;;;2.00;87.60;;;;;;5030703;28;20022;-53
2022/01/20 14:00:55;;;;;;;8.40;2.28;;;2.20;87.40;;;;;;5031467;28;20033;-51
2022/01/20 14:03:21;;;;;;;11.55;2.55;;;2.30;87.40;;;;;;5031995;28;20067;-51
2022/01/20 14:05:47;;;;;;;14.35;2.78;;;2.50;87.70;;;;;;5030988;28;20367;-52
2022/01/20 14:08:13;;;;;;;21.42;5.68;;;2.70;87.70;;;;;;5030791;28;20056;-52
2022/01/20 14:10:39;;;;;;;10.55;1.88;;;2.80;87.20;;;;;;5031928;28;20029;-62